createdAt,value
2023-02-22T00:00:59.665Z,9.47
2023-02-22T00:03:35.115Z,9.59
2023-02-22T00:06:05.976Z,9.68
2023-02-22T00:08:37.282Z,9.76
2023-02-22T00:11:08.686Z,9.82
2023-02-22T00:13:37.909Z,9.93
2023-02-22T00:16:05.803Z,9.98
2023-02-22T00:18:32.726Z,10.04
2023-02-22T00:21:00.923Z,10.12
2023-02-22T00:23:30.556Z,10.17
2023-02-22T00:25:59.747Z,10.22
2023-02-22T00:28:27.291Z,10.27
2023-02-22T00:30:54.842Z,10.31
2023-02-22T00:33:22.781Z,10.38
2023-02-22T00:35:50.155Z,10.41
2023-02-22T00:38:18.993Z,10.44
2023-02-22T00:40:45.934Z,10.48
2023-02-22T00:43:13.794Z,10.50
2023-02-22T00:45:41.713Z,10.52
2023-02-22T00:48:09.891Z,10.53
2023-02-22T00:50:37.516Z,10.54
2023-02-22T00:53:05.864Z,10.54
2023-02-22T00:55:36.568Z,10.55
2023-02-22T00:58:05.429Z,10.55
2023-02-22T01:00:40.083Z,10.56
2023-02-22T01:03:10.803Z,10.57
2023-02-22T01:05:38.847Z,10.57
2023-02-22T01:08:08.942Z,10.56
2023-02-22T01:10:37.935Z,10.56
2023-02-22T01:13:08.813Z,10.55
2023-02-22T01:15:39.144Z,10.55
2023-02-22T01:18:06.415Z,10.53
2023-02-22T01:20:33.684Z,10.52
2023-02-22T01:23:03.571Z,10.51
2023-02-22T01:25:31.929Z,10.50
2023-02-22T01:28:01.013Z,10.49
2023-02-22T01:30:34.923Z,10.46
2023-02-22T01:33:05.702Z,10.44
2023-02-22T01:35:37.058Z,10.42
2023-02-22T01:38:04.005Z,10.40
2023-02-22T01:40:38.384Z,10.39
2023-02-22T01:43:29.569Z,10.38
2023-02-22T01:46:26.321Z,10.35
2023-02-22T01:49:06.497Z,10.32
2023-02-22T01:51:40.652Z,10.30
2023-02-22T01:54:31.538Z,10.29
2023-02-22T01:57:17.929Z,10.27
2023-02-22T01:59:49.701Z,10.27
2023-02-22T02:02:18.763Z,10.25
2023-02-22T02:04:46.361Z,10.23
2023-02-22T02:07:17.339Z,10.21
2023-02-22T02:09:46.900Z,10.18
2023-02-22T02:12:17.124Z,10.16
2023-02-22T02:14:44.553Z,10.13
2023-02-22T02:17:19.321Z,10.10
2023-02-22T02:19:58.841Z,10.07
2023-02-22T02:23:02.067Z,10.04
2023-02-22T02:26:15.512Z,10.01
2023-02-22T02:29:33.605Z,9.97
2023-02-22T02:32:25.669Z,9.93
2023-02-22T02:35:44.143Z,9.90
2023-02-22T02:38:52.382Z,9.88
2023-02-22T02:41:36.183Z,9.84
2023-02-22T02:44:19.536Z,9.82
2023-02-22T02:47:26.365Z,9.79
2023-02-22T02:50:19.569Z,9.77
2023-02-22T02:52:50.817Z,9.75
2023-02-22T02:55:18.814Z,9.72
2023-02-22T02:57:45.779Z,9.72
2023-02-22T03:00:24.446Z,9.70
2023-02-22T03:03:10.844Z,9.67
2023-02-22T03:06:07.937Z,9.58
2023-02-22T03:08:56.997Z,9.43
2023-02-22T03:11:32.094Z,9.28
2023-02-22T03:14:38.566Z,9.11
2023-02-22T03:17:26.773Z,8.91
2023-02-22T03:20:13.210Z,8.74
2023-02-22T03:22:53.208Z,8.61
2023-02-22T03:25:34.072Z,8.46
2023-02-22T03:28:11.434Z,8.37
2023-02-22T03:30:46.851Z,8.26
2023-02-22T03:33:28.686Z,8.17
2023-02-22T03:36:01.128Z,8.08
2023-02-22T03:38:32.454Z,7.99
2023-02-22T03:41:02.216Z,7.89
2023-02-22T03:44:06.615Z,7.76
2023-02-22T03:46:35.885Z,7.71
2023-02-22T03:49:29.702Z,7.59
2023-02-22T03:51:57.696Z,7.54
2023-02-22T03:54:27.365Z,7.47
2023-02-22T03:57:06.739Z,7.38
2023-02-22T03:59:37.945Z,7.34
2023-02-22T04:02:06.384Z,7.27
2023-02-22T04:04:33.343Z,7.21
2023-02-22T04:07:00.686Z,7.16
2023-02-22T04:09:28.831Z,7.10
2023-02-22T04:11:56.322Z,7.06
2023-02-22T04:14:23.989Z,7.03
2023-02-22T04:16:51.086Z,7.00
2023-02-22T04:19:18.117Z,6.97
2023-02-22T04:21:45.080Z,6.95
2023-02-22T04:24:19.134Z,6.90
2023-02-22T04:26:46.162Z,6.89
2023-02-22T04:29:13.223Z,6.86
2023-02-22T04:31:41.816Z,6.85
2023-02-22T04:34:09.658Z,6.81
2023-02-22T04:36:42.240Z,6.78
2023-02-22T04:39:09.589Z,6.77
2023-02-22T04:41:36.598Z,6.74
2023-02-22T04:44:03.600Z,6.74
2023-02-22T04:46:31.715Z,6.74
2023-02-22T04:48:58.953Z,6.76
2023-02-22T04:51:28.703Z,6.81
2023-02-22T04:54:05.322Z,6.86
2023-02-22T04:56:34.561Z,6.97
2023-02-22T04:59:01.618Z,7.03
2023-02-22T05:01:34.753Z,7.13
2023-02-22T05:04:07.462Z,7.20
2023-02-22T05:06:34.583Z,7.26
2023-02-22T05:09:01.565Z,7.33
2023-02-22T05:11:28.947Z,7.36
2023-02-22T05:13:56.053Z,7.42
2023-02-22T05:16:23.228Z,7.44
2023-02-22T05:18:50.168Z,7.46
2023-02-22T05:21:17.366Z,7.46
2023-02-22T05:23:44.443Z,7.49
2023-02-22T05:26:11.803Z,7.50
2023-02-22T05:28:39.047Z,7.50
2023-02-22T05:31:07.341Z,7.51
2023-02-22T05:33:34.517Z,7.50
2023-02-22T05:36:01.474Z,7.50
2023-02-22T05:38:28.576Z,7.49
2023-02-22T05:40:56.827Z,7.50
2023-02-22T05:43:23.777Z,7.48
2023-02-22T05:45:50.693Z,7.48
2023-02-22T05:48:17.661Z,7.46
2023-02-22T05:50:44.617Z,7.45
2023-02-22T05:53:11.538Z,7.43
2023-02-22T05:55:38.468Z,7.39
2023-02-22T05:58:05.806Z,7.37
2023-02-22T06:00:33.227Z,7.36
2023-02-22T06:03:04.207Z,7.32
2023-02-22T06:05:32.097Z,7.31
2023-02-22T06:08:01.046Z,7.29
2023-02-22T06:10:28.500Z,7.26
2023-02-22T06:12:56.463Z,7.24
2023-02-22T06:15:25.684Z,7.22
2023-02-22T06:17:54.478Z,7.18
2023-02-22T06:20:24.109Z,7.18
2023-02-22T06:22:53.430Z,7.16
2023-02-22T06:25:25.044Z,7.15
2023-02-22T06:27:52.377Z,7.14
2023-02-22T06:30:23.722Z,7.13
2023-02-22T06:32:51.027Z,7.13
2023-02-22T06:35:18.726Z,7.10
2023-02-22T06:37:45.756Z,7.09
2023-02-22T06:40:14.122Z,7.07
2023-02-22T06:42:41.391Z,7.06
2023-02-22T06:45:09.674Z,7.06
2023-02-22T06:47:41.300Z,7.05
2023-02-22T06:50:30.140Z,7.06
2023-02-22T06:52:58.610Z,7.04
2023-02-22T06:55:31.964Z,7.03
2023-02-22T06:57:59.948Z,7.02
2023-02-22T07:00:29.244Z,7.00
2023-02-22T07:02:56.957Z,7.00
2023-02-22T07:05:25.298Z,7.00
2023-02-22T07:07:55.558Z,7.01
2023-02-22T07:10:29.295Z,6.99
2023-02-22T07:12:56.306Z,6.99
2023-02-22T07:15:25.686Z,6.98
2023-02-22T07:17:53.346Z,6.97
2023-02-22T07:20:22.142Z,6.98
2023-02-22T07:22:50.042Z,7.00
2023-02-22T07:25:17.419Z,7.02
2023-02-22T07:27:44.501Z,7.01
2023-02-22T07:30:32.165Z,7.00
2023-02-22T07:33:02.016Z,7.00
2023-02-22T07:35:44.387Z,6.96
2023-02-22T07:38:11.304Z,6.96
2023-02-22T07:40:39.397Z,6.95
2023-02-22T07:43:27.699Z,6.95
2023-02-22T07:45:57.204Z,6.96
2023-02-22T07:48:27.537Z,6.96
2023-02-22T07:50:54.683Z,6.98
2023-02-22T07:53:30.150Z,7.00
2023-02-22T07:56:05.793Z,7.03
2023-02-22T07:58:33.301Z,7.07
2023-02-22T08:01:03.774Z,7.11
2023-02-22T08:03:36.425Z,7.15
2023-02-22T08:06:06.403Z,7.19
2023-02-22T08:08:34.383Z,7.24
2023-02-22T08:11:01.554Z,7.28
2023-02-22T08:13:28.619Z,7.34
2023-02-22T08:15:56.060Z,7.38
2023-02-22T08:18:24.691Z,7.42
2023-02-22T08:20:52.784Z,7.47
2023-02-22T08:23:23.408Z,7.55
2023-02-22T08:25:50.807Z,7.59
2023-02-22T08:28:23.197Z,7.68
2023-02-22T08:30:52.048Z,7.75
2023-02-22T08:33:19.715Z,7.80
2023-02-22T08:35:49.466Z,7.85
2023-02-22T08:38:28.863Z,7.90
2023-02-22T08:40:56.121Z,7.92
2023-02-22T08:43:23.900Z,7.98
2023-02-22T08:45:51.762Z,8.02
2023-02-22T08:48:19.977Z,8.07
2023-02-22T08:50:47.048Z,8.12
2023-02-22T08:53:16.130Z,8.18
2023-02-22T08:55:44.486Z,8.20
2023-02-22T08:58:12.533Z,8.29
2023-02-22T09:00:41.194Z,8.34
2023-02-22T09:03:11.836Z,8.36
2023-02-22T09:05:39.155Z,8.41
2023-02-22T09:08:06.402Z,8.43
2023-02-22T09:10:34.829Z,8.47
2023-02-22T09:13:03.838Z,8.53
2023-02-22T09:15:32.139Z,8.61
2023-02-22T09:18:00.230Z,8.69
2023-02-22T09:20:28.873Z,8.79
2023-02-22T09:22:57.018Z,8.90
2023-02-22T09:25:24.240Z,9.00
2023-02-22T09:27:53.388Z,9.10
2023-02-22T09:30:31.781Z,9.20
2023-02-22T09:33:07.047Z,9.30
2023-02-22T09:35:36.040Z,9.38
2023-02-22T09:38:06.222Z,9.45
2023-02-22T09:40:44.699Z,9.52
2023-02-22T09:43:26.558Z,9.59
2023-02-22T09:46:41.933Z,9.66
2023-02-22T09:49:31.205Z,9.71
2023-02-22T09:52:14.212Z,9.74
2023-02-22T09:54:51.669Z,9.79
2023-02-22T09:57:28.856Z,9.85
2023-02-22T10:00:19.999Z,9.93
2023-02-22T10:03:16.304Z,10.01
2023-02-22T10:06:06.444Z,10.07
2023-02-22T10:08:34.432Z,10.13
2023-02-22T10:11:42.644Z,10.19
2023-02-22T10:14:30.420Z,10.26
2023-02-22T10:17:40.250Z,10.31
2023-02-22T10:20:59.839Z,10.37
2023-02-22T10:23:55.217Z,10.44
2023-02-22T10:26:41.836Z,10.51
2023-02-22T10:29:41.702Z,10.58
2023-02-22T10:32:36.165Z,10.68
2023-02-22T10:35:16.161Z,10.72
2023-02-22T10:37:43.304Z,10.83
2023-02-22T10:40:31.942Z,10.91
2023-02-22T10:43:09.485Z,11.03
2023-02-22T10:45:37.047Z,11.12
2023-02-22T10:48:18.305Z,11.26
2023-02-22T10:50:47.254Z,11.35
2023-02-22T10:53:18.651Z,11.46
2023-02-22T10:56:22.079Z,11.63
2023-02-22T10:59:05.839Z,11.73
2023-02-22T11:01:32.724Z,11.83
2023-02-22T11:04:17.967Z,11.92
2023-02-22T11:07:06.865Z,11.99
2023-02-22T11:09:59.966Z,12.07
2023-02-22T11:12:39.661Z,12.16
2023-02-22T11:15:29.646Z,12.26
2023-02-22T11:17:58.793Z,12.36
2023-02-22T11:20:34.445Z,12.47
2023-02-22T11:23:04.433Z,12.59
2023-02-22T11:25:42.473Z,12.69
2023-02-22T11:28:10.681Z,12.81
2023-02-22T11:30:38.319Z,12.92
2023-02-22T11:33:25.706Z,13.06
2023-02-22T11:36:02.166Z,13.20
2023-02-22T11:38:32.531Z,13.34
2023-02-22T11:41:05.349Z,13.48
2023-02-22T11:43:32.517Z,13.61
2023-02-22T11:46:16.880Z,13.73
2023-02-22T11:49:14.042Z,13.92
2023-02-22T11:52:01.210Z,14.05
2023-02-22T11:55:03.022Z,14.25
2023-02-22T11:58:13.910Z,14.37
2023-02-22T12:01:00.741Z,14.51
2023-02-22T12:03:58.829Z,14.66
2023-02-22T12:07:17.337Z,14.82
2023-02-22T12:09:54.802Z,14.94
2023-02-22T12:12:38.848Z,15.09
2023-02-22T12:15:18.357Z,15.18
2023-02-22T12:18:13.092Z,15.26
2023-02-22T12:20:55.528Z,15.33
2023-02-22T12:24:14.285Z,15.46
2023-02-22T12:26:55.097Z,15.51
2023-02-22T12:29:39.130Z,15.62
2023-02-22T12:32:18.325Z,15.68
2023-02-22T12:35:16.808Z,15.80
2023-02-22T12:38:04.664Z,15.92
2023-02-22T12:41:06.003Z,16.04
2023-02-22T12:43:51.624Z,16.15
2023-02-22T12:46:26.893Z,16.18
2023-02-22T12:49:14.432Z,16.25
2023-02-22T12:52:21.353Z,16.34
2023-02-22T12:55:04.203Z,16.40
2023-02-22T12:58:18.231Z,16.48
2023-02-22T13:00:51.266Z,16.55
2023-02-22T13:03:40.957Z,16.67
2023-02-22T13:06:40.444Z,16.73
2023-02-22T13:09:08.954Z,16.76
2023-02-22T13:12:03.048Z,16.82
2023-02-22T13:15:05.308Z,16.93
2023-02-22T13:17:48.302Z,16.92
2023-02-22T13:20:42.066Z,16.95
2023-02-22T13:23:34.857Z,16.96
2023-02-22T13:26:42.035Z,17.00
2023-02-22T13:29:28.337Z,17.03
2023-02-22T13:32:16.972Z,17.04
2023-02-22T13:35:25.916Z,17.06
2023-02-22T13:38:21.689Z,17.03
2023-02-22T13:41:36.055Z,17.03
2023-02-22T13:44:46.926Z,16.96
2023-02-22T13:47:36.270Z,16.95
2023-02-22T13:50:31.477Z,16.82
2023-02-22T13:53:00.609Z,16.70
2023-02-22T13:55:32.896Z,16.58
2023-02-22T13:58:09.647Z,16.51
2023-02-22T14:00:48.840Z,16.49
2023-02-22T14:03:15.680Z,16.42
2023-02-22T14:05:42.686Z,16.38
2023-02-22T14:08:31.515Z,16.38
2023-02-22T14:11:15.203Z,16.36
2023-02-22T14:14:12.128Z,16.35
2023-02-22T14:16:39.152Z,16.30
2023-02-22T14:19:23.385Z,16.33
2023-02-22T14:22:06.707Z,16.33
2023-02-22T14:24:47.442Z,16.30
2023-02-22T14:27:17.445Z,16.27
2023-02-22T14:29:59.545Z,16.28
2023-02-22T14:32:33.818Z,16.26
2023-02-22T14:35:14.262Z,16.24
2023-02-22T14:37:55.620Z,16.22
2023-02-22T14:40:27.800Z,16.20
2023-02-22T14:43:11.257Z,16.20
2023-02-22T14:45:56.395Z,16.19
2023-02-22T14:48:43.492Z,16.16
2023-02-22T14:51:31.310Z,16.16
2023-02-22T14:54:45.036Z,16.15
2023-02-22T14:57:29.555Z,16.12
2023-02-22T15:00:19.920Z,16.10
2023-02-22T15:02:52.173Z,16.07
2023-02-22T15:05:20.748Z,16.04
2023-02-22T15:08:06.175Z,16.05
2023-02-22T15:10:46.767Z,16.02
2023-02-22T15:13:20.113Z,15.96
2023-02-22T15:15:54.608Z,15.90
2023-02-22T15:18:44.779Z,15.88
2023-02-22T15:21:19.169Z,15.82
2023-02-22T15:24:01.462Z,15.76
2023-02-22T15:26:42.480Z,15.67
2023-02-22T15:29:25.275Z,15.62
2023-02-22T15:31:56.310Z,15.52
2023-02-22T15:34:33.352Z,15.47
2023-02-22T15:37:25.036Z,15.37
2023-02-22T15:39:59.221Z,15.25
2023-02-22T15:42:29.700Z,15.16
2023-02-22T15:44:57.924Z,15.11
2023-02-22T15:47:31.866Z,15.03
2023-02-22T15:50:18.077Z,14.94
2023-02-22T15:53:01.766Z,14.85
2023-02-22T15:55:43.612Z,14.78
2023-02-22T15:58:22.219Z,14.68
2023-02-22T16:01:09.130Z,14.63
2023-02-22T16:03:55.106Z,14.53
2023-02-22T16:06:36.845Z,14.47
2023-02-22T16:09:17.220Z,14.37
2023-02-22T16:11:46.326Z,14.30
2023-02-22T16:14:34.938Z,14.23
2023-02-22T16:17:49.475Z,14.13
2023-02-22T16:20:24.779Z,14.04
2023-02-22T16:22:51.774Z,13.96
2023-02-22T16:25:18.710Z,13.90
2023-02-22T16:27:57.454Z,13.83
2023-02-22T16:30:36.652Z,13.76
2023-02-22T16:33:16.437Z,13.69
2023-02-22T16:35:52.394Z,13.62
2023-02-22T16:38:21.194Z,13.57
2023-02-22T16:40:53.806Z,13.51
2023-02-22T16:43:31.417Z,13.46
2023-02-22T16:46:01.518Z,13.39
2023-02-22T16:48:32.721Z,13.32
2023-02-22T16:51:07.216Z,13.26
2023-02-22T16:53:34.462Z,13.19
2023-02-22T16:56:05.737Z,13.12
2023-02-22T16:58:36.542Z,13.04
2023-02-22T17:01:03.477Z,12.97
2023-02-22T17:03:30.399Z,12.89
2023-02-22T17:05:57.406Z,12.80
2023-02-22T17:08:24.582Z,12.73
2023-02-22T17:10:56.578Z,12.64
2023-02-22T17:13:27.477Z,12.57
2023-02-22T17:15:56.362Z,12.50
2023-02-22T17:18:28.543Z,12.42
2023-02-22T17:20:55.878Z,12.36
2023-02-22T17:23:24.260Z,12.32
2023-02-22T17:25:59.124Z,12.24
2023-02-22T17:28:26.973Z,12.20
2023-02-22T17:31:01.053Z,12.16
2023-02-22T17:33:32.796Z,12.09
2023-02-22T17:36:02.122Z,12.06
2023-02-22T17:38:30.351Z,12.02
2023-02-22T17:40:59.673Z,11.96
2023-02-22T17:43:30.369Z,11.92
2023-02-22T17:45:57.446Z,11.91
2023-02-22T17:48:24.722Z,11.89
2023-02-22T17:50:53.011Z,11.85
2023-02-22T17:53:25.279Z,11.85
2023-02-22T17:55:52.677Z,11.85
2023-02-22T17:58:20.122Z,11.83
2023-02-22T18:00:49.869Z,11.82
2023-02-22T18:03:25.312Z,11.81
2023-02-22T18:05:59.703Z,11.81
2023-02-22T18:08:29.928Z,11.79
2023-02-22T18:10:57.257Z,11.77
2023-02-22T18:13:27.047Z,11.76
2023-02-22T18:15:59.731Z,11.74
2023-02-22T18:18:27.193Z,11.72
2023-02-22T18:20:59.213Z,11.69
2023-02-22T18:23:28.938Z,11.67
2023-02-22T18:26:09.560Z,11.66
2023-02-22T18:28:37.347Z,11.60
2023-02-22T18:31:14.329Z,11.59
2023-02-22T18:33:48.385Z,11.58
2023-02-22T18:36:21.547Z,11.57
2023-02-22T18:38:49.701Z,11.55
2023-02-22T18:41:19.353Z,11.55
2023-02-22T18:43:46.700Z,11.52
2023-02-22T18:46:19.765Z,11.50
2023-02-22T18:48:51.308Z,11.50
2023-02-22T18:51:18.359Z,11.48
2023-02-22T18:53:47.680Z,11.47
2023-02-22T18:56:22.524Z,11.45
2023-02-22T18:59:02.229Z,11.42
2023-02-22T19:01:38.610Z,11.41
2023-02-22T19:04:10.052Z,11.38
2023-02-22T19:06:37.564Z,11.36
2023-02-22T19:09:08.324Z,11.34
2023-02-22T19:11:36.327Z,11.31
2023-02-22T19:14:05.103Z,11.29
2023-02-22T19:16:32.790Z,11.28
2023-02-22T19:18:59.932Z,11.25
2023-02-22T19:21:29.416Z,11.24
2023-02-22T19:24:02.713Z,11.23
2023-02-22T19:26:30.684Z,11.22
2023-02-22T19:29:01.297Z,11.21
2023-02-22T19:31:33.217Z,11.19
2023-02-22T19:34:09.797Z,11.19
2023-02-22T19:36:44.818Z,11.17
2023-02-22T19:39:16.403Z,11.17
2023-02-22T19:41:43.390Z,11.16
2023-02-22T19:44:10.852Z,11.14
2023-02-22T19:46:38.257Z,11.15
2023-02-22T19:49:06.288Z,11.13
2023-02-22T19:51:34.047Z,11.12
2023-02-22T19:54:05.030Z,11.10
2023-02-22T19:56:34.845Z,11.07
2023-02-22T19:59:09.178Z,11.06
2023-02-22T20:01:37.382Z,11.05
2023-02-22T20:04:08.256Z,11.04
2023-02-22T20:06:42.462Z,10.98
2023-02-22T20:09:13.843Z,10.96
2023-02-22T20:11:40.785Z,10.96
2023-02-22T20:14:08.240Z,10.95
2023-02-22T20:16:35.679Z,10.94
2023-02-22T20:19:02.758Z,10.93
2023-02-22T20:21:33.591Z,10.91
2023-02-22T20:24:03.794Z,10.89
2023-02-22T20:26:32.785Z,10.87
2023-02-22T20:29:00.558Z,10.85
2023-02-22T20:31:29.522Z,10.85
2023-02-22T20:33:59.628Z,10.83
2023-02-22T20:36:28.896Z,10.83
2023-02-22T20:39:00.252Z,10.80
2023-02-22T20:41:35.682Z,10.78
2023-02-22T20:44:06.811Z,10.78
2023-02-22T20:46:37.419Z,10.75
2023-02-22T20:49:08.073Z,10.73
2023-02-22T20:51:35.378Z,10.72
2023-02-22T20:54:02.499Z,10.70
2023-02-22T20:56:32.320Z,10.68
2023-02-22T20:59:01.959Z,10.66
2023-02-22T21:01:29.416Z,10.67
2023-02-22T21:04:06.183Z,10.66
2023-02-22T21:06:37.047Z,10.66
2023-02-22T21:09:08.590Z,10.64
2023-02-22T21:11:36.120Z,10.67
2023-02-22T21:14:03.699Z,10.64
2023-02-22T21:16:36.896Z,10.64
2023-02-22T21:19:07.306Z,10.63
2023-02-22T21:21:35.538Z,10.62
2023-02-22T21:24:02.650Z,10.63
2023-02-22T21:26:33.102Z,10.62
2023-02-22T21:29:04.618Z,10.63
2023-02-22T21:31:33.264Z,10.62
2023-02-22T21:34:00.860Z,10.64
2023-02-22T21:36:28.803Z,10.64
2023-02-22T21:39:01.795Z,10.64
2023-02-22T21:41:30.874Z,10.64
2023-02-22T21:43:59.384Z,10.64
2023-02-22T21:46:29.028Z,10.63
2023-02-22T21:48:58.377Z,10.64
2023-02-22T21:51:32.328Z,10.63
2023-02-22T21:54:08.241Z,10.64
2023-02-22T21:56:38.595Z,10.64
2023-02-22T21:59:24.070Z,10.63
2023-02-22T22:01:57.581Z,10.65
2023-02-22T22:04:34.851Z,10.64
2023-02-22T22:07:04.505Z,10.64
2023-02-22T22:09:37.664Z,10.65
2023-02-22T22:12:05.606Z,10.64
2023-02-22T22:14:34.517Z,10.63
2023-02-22T22:17:05.335Z,10.65
2023-02-22T22:19:39.010Z,10.63
2023-02-22T22:22:06.918Z,10.63
2023-02-22T22:24:34.866Z,10.64
2023-02-22T22:27:05.501Z,10.63
2023-02-22T22:29:34.227Z,10.63
2023-02-22T22:32:01.820Z,10.62
2023-02-22T22:34:29.564Z,10.64
2023-02-22T22:36:58.072Z,10.63
2023-02-22T22:39:26.329Z,10.63
2023-02-22T22:41:53.299Z,10.63
2023-02-22T22:44:22.218Z,10.62
2023-02-22T22:46:53.414Z,10.62
2023-02-22T22:49:20.751Z,10.61
2023-02-22T22:51:48.141Z,10.61
2023-02-22T22:54:15.073Z,10.60
2023-02-22T22:56:42.149Z,10.58
2023-02-22T22:59:13.055Z,10.58
2023-02-22T23:01:46.714Z,10.57
2023-02-22T23:04:16.794Z,10.56
2023-02-22T23:06:52.386Z,10.57
2023-02-22T23:09:30.317Z,10.54
2023-02-22T23:12:09.927Z,10.55
2023-02-22T23:14:43.971Z,10.54
2023-02-22T23:17:30.785Z,10.54
2023-02-22T23:19:57.725Z,10.54
2023-02-22T23:22:24.649Z,10.53
2023-02-22T23:24:54.464Z,10.52
2023-02-22T23:27:23.647Z,10.53
2023-02-22T23:29:50.588Z,10.53
2023-02-22T23:32:17.603Z,10.51
2023-02-22T23:34:44.592Z,10.52
2023-02-22T23:37:13.944Z,10.52
2023-02-22T23:39:41.112Z,10.52
2023-02-22T23:42:10.868Z,10.51
2023-02-22T23:44:39.745Z,10.51
2023-02-22T23:47:07.243Z,10.50
2023-02-22T23:49:38.355Z,10.50
2023-02-22T23:52:07.420Z,10.50
2023-02-22T23:54:40.297Z,10.49
2023-02-22T23:57:08.747Z,10.50
2023-02-22T23:59:40.185Z,10.50
